createdAt,value
2023-03-26T00:00:00.047Z,520.0000
2023-03-26T00:01:02.356Z,521.0000
2023-03-26T00:02:02.589Z,525.0000
2023-03-26T00:03:04.940Z,523.0000
2023-03-26T00:04:07.221Z,526.0000
2023-03-26T00:05:09.545Z,523.0000
2023-03-26T00:06:11.836Z,525.0000
2023-03-26T00:07:11.980Z,523.0000
2023-03-26T00:08:14.313Z,521.0000
2023-03-26T00:09:16.767Z,520.0000
2023-03-26T00:10:19.003Z,521.0000
2023-03-26T00:11:21.342Z,522.0000
2023-03-26T00:12:23.678Z,518.0000
2023-03-26T00:13:23.867Z,517.0000
2023-03-26T00:14:26.235Z,518.0000
2023-03-26T00:15:28.558Z,517.0000
2023-03-26T00:16:30.936Z,521.0000
2023-03-26T00:17:33.296Z,523.0000
2023-03-26T00:18:33.501Z,520.0000
2023-03-26T00:19:35.933Z,519.0000
2023-03-26T00:20:38.171Z,520.0000
2023-03-26T00:21:40.441Z,522.0000
2023-03-26T00:22:42.786Z,524.0000
2023-03-26T00:23:45.108Z,529.0000
2023-03-26T00:24:45.363Z,528.0000
2023-03-26T00:25:49.528Z,524.0000
2023-03-26T00:26:47.843Z,525.0000
2023-03-26T00:27:50.110Z,526.0000
2023-03-26T00:28:52.400Z,526.0000
2023-03-26T00:29:52.615Z,525.0000
2023-03-26T00:30:09.808Z,516.0000
2023-03-26T00:31:11.981Z,527.0000
2023-03-26T00:32:14.235Z,524.0000
2023-03-26T00:33:14.373Z,525.0000
2023-03-26T00:34:16.698Z,523.0000
2023-03-26T00:35:19.095Z,522.0000
2023-03-26T00:36:21.321Z,523.0000
2023-03-26T00:37:23.560Z,524.0000
2023-03-26T00:38:25.848Z,524.0000
2023-03-26T00:39:28.042Z,523.0000
2023-03-26T00:40:30.397Z,526.0000
2023-03-26T00:41:32.520Z,524.0000
2023-03-26T00:42:32.574Z,526.0000
2023-03-26T00:43:34.762Z,525.0000
2023-03-26T00:44:36.990Z,523.0000
2023-03-26T00:45:39.337Z,526.0000
2023-03-26T00:46:41.562Z,524.0000
2023-03-26T00:47:43.717Z,526.0000
2023-03-26T00:48:46.211Z,525.0000
2023-03-26T00:49:48.223Z,521.0000
2023-03-26T00:52:22.998Z,518.0000
2023-03-26T00:53:25.202Z,520.0000
2023-03-26T00:54:25.341Z,521.0000
2023-03-26T00:55:27.632Z,520.0000
2023-03-26T00:56:29.980Z,515.0000
2023-03-26T00:57:35.829Z,515.0000
2023-03-26T00:58:34.416Z,512.0000
2023-03-26T00:59:36.701Z,512.0000
2023-03-26T01:00:38.923Z,513.0000
2023-03-26T01:01:41.217Z,509.0000
2023-03-26T01:02:41.472Z,507.0000
2023-03-26T01:03:50.341Z,509.0000
2023-03-26T01:04:45.957Z,509.0000
2023-03-26T01:05:48.129Z,511.0000
2023-03-26T01:06:50.427Z,511.0000
2023-03-26T01:07:52.885Z,510.0000
2023-03-26T01:08:55.082Z,512.0000
2023-03-26T01:09:55.270Z,511.0000
2023-03-26T01:10:57.608Z,514.0000
2023-03-26T01:11:59.929Z,516.0000
2023-03-26T01:13:02.383Z,518.0000
2023-03-26T01:14:04.595Z,516.0000
2023-03-26T01:15:04.781Z,514.0000
2023-03-26T01:16:07.119Z,512.0000
2023-03-26T01:17:09.413Z,512.0000
2023-03-26T01:18:11.736Z,512.0000
2023-03-26T01:19:14.011Z,512.0000
2023-03-26T01:20:16.320Z,513.0000
2023-03-26T01:21:18.688Z,517.0000
2023-03-26T01:22:18.854Z,516.0000
2023-03-26T01:23:21.197Z,517.0000
2023-03-26T01:24:23.525Z,515.0000
2023-03-26T01:25:25.795Z,514.0000
2023-03-26T01:26:28.143Z,513.0000
2023-03-26T01:27:30.410Z,513.0000
2023-03-26T01:28:32.752Z,512.0000
2023-03-26T01:29:35.086Z,511.0000
2023-03-26T01:30:37.393Z,514.0000
2023-03-26T01:31:39.711Z,510.0000
2023-03-26T01:32:40.055Z,510.0000
2023-03-26T01:33:42.308Z,511.0000
2023-03-26T01:34:44.502Z,513.0000
2023-03-26T01:35:46.845Z,511.0000
2023-03-26T01:36:49.171Z,512.0000
2023-03-26T01:37:51.469Z,508.0000
2023-03-26T01:38:51.775Z,509.0000
2023-03-26T01:39:53.971Z,505.0000
2023-03-26T01:40:56.324Z,507.0000
2023-03-26T01:41:58.642Z,506.0000
2023-03-26T01:43:00.949Z,509.0000
2023-03-26T01:44:03.279Z,512.0000
2023-03-26T01:45:03.497Z,510.0000
2023-03-26T01:46:05.782Z,512.0000
2023-03-26T01:47:08.116Z,509.0000
2023-03-26T01:48:10.464Z,510.0000
2023-03-26T01:49:12.827Z,511.0000
2023-03-26T01:50:12.936Z,512.0000
2023-03-26T01:51:15.242Z,509.0000
2023-03-26T01:52:15.487Z,508.0000
2023-03-26T01:53:17.765Z,507.0000
2023-03-26T01:54:20.233Z,508.0000
2023-03-26T01:55:22.456Z,508.0000
2023-03-26T01:56:22.650Z,511.0000
2023-03-26T01:57:24.950Z,511.0000
2023-03-26T01:58:27.251Z,512.0000
2023-03-26T01:59:29.559Z,513.0000
2023-03-26T02:00:31.813Z,513.0000
2023-03-26T02:01:34.455Z,511.0000
2023-03-26T02:02:36.648Z,513.0000
2023-03-26T02:03:38.869Z,513.0000
2023-03-26T02:04:41.234Z,514.0000
2023-03-26T02:05:43.567Z,512.0000
2023-03-26T02:06:43.810Z,512.0000
2023-03-26T02:07:46.146Z,512.0000
2023-03-26T02:08:48.474Z,511.0000
2023-03-26T02:09:50.855Z,510.0000
2023-03-26T02:10:51.049Z,508.0000
2023-03-26T02:11:51.250Z,511.0000
2023-03-26T02:12:53.616Z,510.0000
2023-03-26T02:13:55.941Z,514.0000
2023-03-26T02:14:58.424Z,515.0000
2023-03-26T02:16:00.702Z,512.0000
2023-03-26T02:17:00.889Z,514.0000
2023-03-26T02:18:03.261Z,512.0000
2023-03-26T02:19:05.633Z,512.0000
2023-03-26T02:20:08.016Z,511.0000
2023-03-26T02:21:08.249Z,512.0000
2023-03-26T02:22:10.641Z,513.0000
2023-03-26T02:23:13.057Z,513.0000
2023-03-26T02:24:15.419Z,516.0000
2023-03-26T02:25:15.745Z,515.0000
2023-03-26T02:26:17.974Z,519.0000
2023-03-26T02:27:20.342Z,519.0000
2023-03-26T02:28:22.716Z,519.0000
2023-03-26T02:29:25.110Z,518.0000
2023-03-26T02:30:25.363Z,513.0000
2023-03-26T02:31:27.719Z,511.0000
2023-03-26T02:32:30.080Z,510.0000
2023-03-26T02:33:32.369Z,513.0000
2023-03-26T02:34:33.513Z,514.0000
2023-03-26T02:35:36.061Z,512.0000
2023-03-26T02:36:38.278Z,510.0000
2023-03-26T02:37:40.504Z,513.0000
2023-03-26T02:38:42.804Z,513.0000
2023-03-26T02:39:45.110Z,511.0000
2023-03-26T02:40:47.533Z,510.0000
2023-03-26T02:41:49.776Z,510.0000
2023-03-26T02:42:52.113Z,510.0000
2023-03-26T02:43:54.444Z,510.0000
2023-03-26T02:44:54.628Z,511.0000
2023-03-26T02:45:57.451Z,515.0000
2023-03-26T02:46:59.372Z,514.0000
2023-03-26T02:47:59.634Z,517.0000
2023-03-26T02:49:01.973Z,516.0000
2023-03-26T02:50:04.351Z,511.0000
2023-03-26T02:51:06.724Z,515.0000
2023-03-26T02:52:08.996Z,511.0000
2023-03-26T02:53:11.313Z,512.0000
2023-03-26T02:54:11.546Z,508.0000
2023-03-26T02:55:13.873Z,507.0000
2023-03-26T02:56:16.340Z,509.0000
2023-03-26T02:57:18.613Z,511.0000
2023-03-26T02:58:20.967Z,509.0000
2023-03-26T02:59:23.271Z,509.0000
2023-03-26T03:00:23.495Z,510.0000
2023-03-26T03:01:25.981Z,510.0000
2023-03-26T03:02:28.300Z,512.0000
2023-03-26T03:03:28.428Z,512.0000
2023-03-26T03:04:30.773Z,511.0000
2023-03-26T03:05:33.136Z,511.0000
2023-03-26T03:06:33.474Z,511.0000
2023-03-26T03:07:35.727Z,512.0000
2023-03-26T03:08:38.093Z,508.0000
2023-03-26T03:09:40.403Z,511.0000
2023-03-26T03:10:42.693Z,512.0000
2023-03-26T03:11:45.158Z,514.0000
2023-03-26T03:12:47.351Z,510.0000
2023-03-26T03:13:49.739Z,512.0000
2023-03-26T03:14:52.065Z,512.0000
2023-03-26T03:15:52.328Z,512.0000
2023-03-26T03:16:54.633Z,510.0000
2023-03-26T03:18:58.461Z,508.0000
2023-03-26T03:19:59.382Z,506.0000
2023-03-26T03:20:59.525Z,501.0000
2023-03-26T03:22:01.850Z,500.0000
2023-03-26T03:23:04.153Z,502.0000
2023-03-26T03:24:04.351Z,499.0000
2023-03-26T03:25:06.645Z,500.0000
2023-03-26T03:26:08.877Z,503.0000
2023-03-26T03:27:11.171Z,505.0000
2023-03-26T03:28:13.401Z,508.0000
2023-03-26T03:29:15.676Z,507.0000
2023-03-26T03:30:17.935Z,504.0000
2023-03-26T03:31:20.231Z,506.0000
2023-03-26T03:32:20.448Z,508.0000
2023-03-26T03:33:22.599Z,508.0000
2023-03-26T03:34:24.870Z,510.0000
2023-03-26T03:35:27.182Z,511.0000
2023-03-26T03:36:29.373Z,510.0000
2023-03-26T03:37:31.778Z,510.0000
2023-03-26T03:38:33.932Z,513.0000
2023-03-26T03:39:36.189Z,511.0000
2023-03-26T03:40:36.302Z,513.0000
2023-03-26T03:41:38.571Z,513.0000
2023-03-26T03:42:40.882Z,513.0000
2023-03-26T03:43:43.133Z,512.0000
2023-03-26T03:44:45.405Z,514.0000
2023-03-26T03:45:47.711Z,514.0000
2023-03-26T03:46:49.956Z,515.0000
2023-03-26T03:47:52.395Z,515.0000
2023-03-26T03:48:52.339Z,515.0000
2023-03-26T03:49:54.544Z,514.0000
2023-03-26T03:50:56.790Z,514.0000
2023-03-26T03:51:59.023Z,516.0000
2023-03-26T03:53:01.390Z,514.0000
2023-03-26T03:54:03.555Z,513.0000
2023-03-26T03:55:03.658Z,513.0000
2023-03-26T03:56:05.982Z,513.0000
2023-03-26T03:57:06.126Z,513.0000
2023-03-26T03:58:08.526Z,512.0000
2023-03-26T03:59:10.778Z,512.0000
2023-03-26T04:00:13.115Z,514.0000
2023-03-26T04:01:15.435Z,514.0000
2023-03-26T04:02:17.813Z,514.0000
2023-03-26T04:03:18.140Z,508.0000
2023-03-26T04:04:20.279Z,513.0000
2023-03-26T04:05:22.588Z,513.0000
2023-03-26T04:06:24.925Z,513.0000
2023-03-26T04:07:27.210Z,511.0000
2023-03-26T04:08:29.613Z,511.0000
2023-03-26T04:09:29.696Z,515.0000
2023-03-26T04:10:32.004Z,514.0000
2023-03-26T04:11:34.285Z,512.0000
2023-03-26T04:12:36.558Z,511.0000
2023-03-26T04:13:38.983Z,511.0000
2023-03-26T04:14:41.166Z,512.0000
2023-03-26T04:15:41.329Z,513.0000
2023-03-26T04:16:43.624Z,514.0000
2023-03-26T04:17:45.979Z,513.0000
2023-03-26T04:18:48.328Z,514.0000
2023-03-26T04:19:50.545Z,514.0000
2023-03-26T04:20:52.831Z,514.0000
2023-03-26T04:21:55.129Z,516.0000
2023-03-26T04:22:55.244Z,516.0000
2023-03-26T04:23:57.576Z,518.0000
2023-03-26T04:24:59.731Z,516.0000
2023-03-26T04:26:01.994Z,517.0000
2023-03-26T04:27:04.294Z,516.0000
2023-03-26T04:28:06.509Z,514.0000
2023-03-26T04:29:08.833Z,511.0000
2023-03-26T04:30:11.138Z,513.0000
2023-03-26T04:31:13.444Z,514.0000
2023-03-26T04:32:15.732Z,513.0000
2023-03-26T04:33:18.028Z,513.0000
2023-03-26T04:34:20.443Z,510.0000
2023-03-26T04:35:22.642Z,513.0000
2023-03-26T04:37:33.764Z,503.0000
2023-03-26T04:38:36.006Z,501.0000
2023-03-26T04:39:38.263Z,505.0000
2023-03-26T04:40:40.421Z,509.0000
2023-03-26T04:41:42.589Z,509.0000
2023-03-26T04:42:42.733Z,508.0000
2023-03-26T04:43:44.964Z,512.0000
2023-03-26T04:44:47.354Z,509.0000
2023-03-26T04:45:49.515Z,509.0000
2023-03-26T04:46:51.850Z,510.0000
2023-03-26T04:47:54.145Z,511.0000
2023-03-26T04:48:56.387Z,512.0000
2023-03-26T04:49:58.697Z,512.0000
2023-03-26T04:50:58.719Z,511.0000
2023-03-26T04:52:00.926Z,513.0000
2023-03-26T04:53:03.191Z,512.0000
2023-03-26T04:54:05.414Z,512.0000
2023-03-26T04:55:07.751Z,512.0000
2023-03-26T04:56:09.931Z,512.0000
2023-03-26T04:57:12.309Z,511.0000
2023-03-26T04:58:12.339Z,511.0000
2023-03-26T04:59:14.637Z,512.0000
2023-03-26T05:00:17.042Z,509.0000
2023-03-26T05:01:19.317Z,510.0000
2023-03-26T05:02:21.619Z,509.0000
2023-03-26T05:03:23.938Z,509.0000
2023-03-26T05:04:24.193Z,508.0000
2023-03-26T05:05:24.401Z,509.0000
2023-03-26T05:06:26.633Z,509.0000
2023-03-26T05:07:28.934Z,504.0000
2023-03-26T05:08:31.231Z,504.0000
2023-03-26T05:09:33.491Z,503.0000
2023-03-26T05:10:33.662Z,505.0000
2023-03-26T05:11:35.875Z,503.0000
2023-03-26T05:12:38.088Z,502.0000
2023-03-26T05:13:40.418Z,503.0000
2023-03-26T05:14:42.690Z,503.0000
2023-03-26T05:15:45.009Z,501.0000
2023-03-26T05:16:47.287Z,502.0000
2023-03-26T05:17:47.424Z,503.0000
2023-03-26T05:18:49.696Z,501.0000
2023-03-26T05:19:52.005Z,498.0000
2023-03-26T05:20:54.608Z,500.0000
2023-03-26T05:21:56.543Z,502.0000
2023-03-26T05:22:58.825Z,501.0000
2023-03-26T05:24:01.130Z,500.0000
2023-03-26T05:25:01.267Z,502.0000
2023-03-26T05:26:03.572Z,500.0000
2023-03-26T05:27:05.802Z,499.0000
2023-03-26T05:28:08.086Z,502.0000
2023-03-26T05:29:10.380Z,502.0000
2023-03-26T05:30:12.652Z,505.0000
2023-03-26T05:31:14.969Z,505.0000
2023-03-26T05:32:17.234Z,499.0000
2023-03-26T05:33:17.562Z,500.0000
2023-03-26T05:34:19.727Z,501.0000
2023-03-26T05:35:22.077Z,500.0000
2023-03-26T05:36:24.456Z,498.0000
2023-03-26T05:37:26.691Z,501.0000
2023-03-26T05:38:29.019Z,502.0000
2023-03-26T05:39:29.150Z,500.0000
2023-03-26T05:40:31.430Z,497.0000
2023-03-26T05:41:33.840Z,496.0000
2023-03-26T05:42:36.031Z,496.0000
2023-03-26T05:43:38.352Z,496.0000
2023-03-26T05:44:40.716Z,497.0000
2023-03-26T05:46:07.315Z,499.0000
2023-03-26T05:47:09.233Z,500.0000
2023-03-26T05:48:11.374Z,498.0000
2023-03-26T05:49:13.642Z,500.0000
2023-03-26T05:50:15.960Z,496.0000
2023-03-26T05:51:18.291Z,489.0000
2023-03-26T05:52:20.634Z,493.0000
2023-03-26T05:53:22.924Z,498.0000
2023-03-26T05:54:23.030Z,499.0000
2023-03-26T05:55:25.303Z,499.0000
2023-03-26T05:56:27.604Z,502.0000
2023-03-26T05:57:29.905Z,502.0000
2023-03-26T05:58:32.136Z,502.0000
2023-03-26T05:59:34.377Z,503.0000
2023-03-26T06:00:36.625Z,505.0000
2023-03-26T06:02:13.864Z,501.0000
2023-03-26T06:03:15.905Z,486.0000
2023-03-26T06:04:18.024Z,488.0000
2023-03-26T06:05:20.206Z,488.0000
2023-03-26T06:06:22.485Z,493.0000
2023-03-26T06:07:22.660Z,494.0000
2023-03-26T06:08:24.959Z,495.0000
2023-03-26T06:09:27.219Z,496.0000
2023-03-26T06:10:29.487Z,495.0000
2023-03-26T06:11:31.813Z,495.0000
2023-03-26T06:12:34.048Z,490.0000
2023-03-26T06:13:36.442Z,491.0000
2023-03-26T06:14:36.480Z,490.0000
2023-03-26T06:15:38.776Z,494.0000
2023-03-26T06:16:41.009Z,493.0000
2023-03-26T06:17:43.314Z,493.0000
2023-03-26T06:18:45.650Z,496.0000
2023-03-26T06:19:47.908Z,496.0000
2023-03-26T06:20:50.192Z,496.0000
2023-03-26T06:21:50.305Z,498.0000
2023-03-26T06:22:52.575Z,498.0000
2023-03-26T06:23:54.964Z,500.0000
2023-03-26T06:24:57.081Z,499.0000
2023-03-26T06:25:59.369Z,500.0000
2023-03-26T06:27:01.658Z,504.0000
2023-03-26T06:28:03.880Z,505.0000
2023-03-26T06:29:06.132Z,504.0000
2023-03-26T06:30:08.394Z,503.0000
2023-03-26T06:31:08.506Z,507.0000
2023-03-26T06:32:19.702Z,507.0000
2023-03-26T06:33:13.089Z,513.0000
2023-03-26T06:34:15.492Z,512.0000
2023-03-26T06:35:17.683Z,511.0000
2023-03-26T06:36:17.861Z,513.0000
2023-03-26T06:37:20.153Z,512.0000
2023-03-26T06:38:22.491Z,519.0000
2023-03-26T06:39:24.870Z,520.0000
2023-03-26T06:40:27.181Z,521.0000
2023-03-26T06:41:27.288Z,522.0000
2023-03-26T06:42:32.004Z,526.0000
2023-03-26T06:43:31.893Z,526.0000
2023-03-26T06:44:34.199Z,526.0000
2023-03-26T06:45:36.430Z,531.0000
2023-03-26T06:46:38.741Z,524.0000
2023-03-26T06:47:41.075Z,530.0000
2023-03-26T06:48:41.124Z,531.0000
2023-03-26T06:49:45.362Z,531.0000
2023-03-26T06:50:45.773Z,535.0000
2023-03-26T06:51:48.107Z,539.0000
2023-03-26T06:52:50.468Z,542.0000
2023-03-26T06:53:52.802Z,548.0000
2023-03-26T06:54:53.013Z,553.0000
2023-03-26T06:55:55.312Z,556.0000
2023-03-26T06:56:57.639Z,563.0000
2023-03-26T06:57:59.948Z,569.0000
2023-03-26T06:59:02.296Z,574.0000
2023-03-26T07:00:02.617Z,580.0000
2023-03-26T07:01:04.834Z,584.0000
2023-03-26T07:02:07.147Z,587.0000
2023-03-26T07:03:09.515Z,590.0000
2023-03-26T07:04:11.901Z,596.0000
2023-03-26T07:05:14.164Z,600.0000
2023-03-26T07:06:14.274Z,603.0000
2023-03-26T07:07:16.601Z,603.0000
2023-03-26T07:08:18.897Z,607.0000
2023-03-26T07:09:21.217Z,610.0000
2023-03-26T07:10:23.595Z,616.0000
2023-03-26T07:11:25.833Z,617.0000
2023-03-26T07:12:25.999Z,619.0000
2023-03-26T07:13:28.342Z,622.0000
2023-03-26T07:14:30.694Z,623.0000
2023-03-26T07:15:33.018Z,624.0000
2023-03-26T07:16:35.334Z,621.0000
2023-03-26T07:17:35.493Z,625.0000
2023-03-26T07:18:37.771Z,622.0000
2023-03-26T07:19:40.238Z,628.0000
2023-03-26T07:20:42.529Z,627.0000
2023-03-26T07:21:44.686Z,625.0000
2023-03-26T07:22:46.938Z,628.0000
2023-03-26T07:23:49.233Z,631.0000
2023-03-26T07:24:49.418Z,635.0000
2023-03-26T07:25:51.841Z,636.0000
2023-03-26T07:26:53.949Z,638.0000
2023-03-26T07:27:56.229Z,639.0000
2023-03-26T07:29:03.968Z,638.0000
2023-03-26T07:30:00.693Z,637.0000
2023-03-26T07:31:02.929Z,641.0000
2023-03-26T07:32:05.177Z,641.0000
2023-03-26T07:33:07.363Z,644.0000
2023-03-26T07:34:07.488Z,644.0000
2023-03-26T07:35:09.807Z,646.0000
2023-03-26T07:36:12.291Z,647.0000
2023-03-26T07:37:14.528Z,648.0000
2023-03-26T07:38:16.886Z,645.0000
2023-03-26T07:39:17.093Z,648.0000
2023-03-26T07:40:19.473Z,652.0000
2023-03-26T07:41:21.858Z,662.0000
2023-03-26T07:42:24.202Z,670.0000
2023-03-26T07:43:26.565Z,678.0000
2023-03-26T07:44:26.760Z,685.0000
2023-03-26T07:45:29.107Z,696.0000
2023-03-26T07:46:31.498Z,704.0000
2023-03-26T07:47:33.742Z,702.0000
2023-03-26T07:48:36.114Z,699.0000
2023-03-26T07:49:38.433Z,697.0000
2023-03-26T07:50:40.784Z,695.0000
2023-03-26T07:51:43.144Z,692.0000
2023-03-26T07:52:45.398Z,689.0000
2023-03-26T07:53:47.648Z,682.0000
2023-03-26T07:54:49.900Z,678.0000
2023-03-26T07:55:50.004Z,677.0000
2023-03-26T07:56:54.093Z,673.0000
2023-03-26T07:57:54.525Z,673.0000
2023-03-26T07:58:56.801Z,672.0000
2023-03-26T07:59:58.999Z,670.0000
2023-03-26T08:01:01.273Z,668.0000
2023-03-26T08:02:03.605Z,669.0000
2023-03-26T08:03:05.925Z,670.0000
2023-03-26T08:04:23.272Z,670.0000
2023-03-26T08:05:08.148Z,672.0000
2023-03-26T08:06:10.357Z,672.0000
2023-03-26T08:07:12.750Z,669.0000
2023-03-26T08:08:14.921Z,669.0000
2023-03-26T08:09:17.234Z,668.0000
2023-03-26T08:10:19.568Z,667.0000
2023-03-26T08:11:21.851Z,667.0000
2023-03-26T08:12:24.251Z,665.0000
2023-03-26T08:13:24.321Z,666.0000
2023-03-26T08:14:26.612Z,666.0000
2023-03-26T08:15:28.955Z,663.0000
2023-03-26T08:16:31.247Z,658.0000
2023-03-26T08:17:33.700Z,661.0000
2023-03-26T08:18:35.845Z,662.0000
2023-03-26T08:19:36.044Z,663.0000
2023-03-26T08:20:38.344Z,665.0000
2023-03-26T08:21:40.683Z,666.0000
2023-03-26T08:22:43.050Z,668.0000
2023-03-26T08:23:50.724Z,672.0000
2023-03-26T08:24:45.562Z,670.0000
2023-03-26T08:25:47.930Z,671.0000
2023-03-26T08:26:50.288Z,670.0000
2023-03-26T08:27:52.748Z,669.0000
2023-03-26T08:28:52.872Z,668.0000
2023-03-26T08:29:55.234Z,668.0000
2023-03-26T08:30:57.927Z,664.0000
2023-03-26T08:31:59.935Z,661.0000
2023-03-26T08:33:02.398Z,659.0000
2023-03-26T08:34:02.475Z,659.0000
2023-03-26T08:35:04.830Z,656.0000
2023-03-26T08:36:07.216Z,656.0000
2023-03-26T08:37:09.517Z,655.0000
2023-03-26T08:38:09.745Z,654.0000
2023-03-26T08:39:12.080Z,653.0000
2023-03-26T08:40:14.429Z,652.0000
2023-03-26T08:41:16.794Z,648.0000
2023-03-26T08:42:19.180Z,648.0000
2023-03-26T08:43:19.398Z,646.0000
2023-03-26T08:44:21.748Z,644.0000
2023-03-26T08:45:24.118Z,643.0000
2023-03-26T08:47:03.106Z,658.0000
2023-03-26T08:48:03.248Z,660.0000
2023-03-26T08:49:05.526Z,662.0000
2023-03-26T08:50:07.652Z,663.0000
2023-03-26T08:51:09.934Z,662.0000
2023-03-26T08:52:12.255Z,664.0000
2023-03-26T08:53:14.487Z,664.0000
2023-03-26T08:54:16.892Z,667.0000
2023-03-26T08:55:16.942Z,666.0000
2023-03-26T08:56:19.193Z,669.0000
2023-03-26T08:57:21.500Z,670.0000
2023-03-26T08:58:23.805Z,672.0000
2023-03-26T08:59:26.143Z,672.0000
2023-03-26T09:00:28.367Z,673.0000
2023-03-26T09:01:30.734Z,676.0000
2023-03-26T09:02:30.859Z,675.0000
2023-03-26T09:03:33.199Z,672.0000
2023-03-26T09:04:35.442Z,672.0000
2023-03-26T09:05:37.709Z,674.0000
2023-03-26T09:06:40.022Z,673.0000
2023-03-26T09:07:42.387Z,672.0000
2023-03-26T09:08:53.618Z,675.0000
2023-03-26T09:09:44.895Z,679.0000
2023-03-26T09:10:47.209Z,679.0000
2023-03-26T09:11:49.542Z,681.0000
2023-03-26T09:12:51.863Z,683.0000
2023-03-26T09:13:52.056Z,680.0000
2023-03-26T09:14:52.357Z,680.0000
2023-03-26T09:15:54.599Z,677.0000
2023-03-26T09:16:56.900Z,676.0000
2023-03-26T09:17:59.369Z,675.0000
2023-03-26T09:19:01.585Z,673.0000
2023-03-26T09:20:01.758Z,672.0000
2023-03-26T09:21:03.997Z,670.0000
2023-03-26T09:22:06.308Z,666.0000
2023-03-26T09:23:08.622Z,662.0000
2023-03-26T09:24:10.932Z,652.0000
2023-03-26T09:25:13.322Z,651.0000
2023-03-26T09:26:13.348Z,650.0000
2023-03-26T09:27:15.669Z,647.0000
2023-03-26T09:28:17.950Z,645.0000
2023-03-26T09:29:20.223Z,642.0000
2023-03-26T09:30:22.558Z,635.0000
2023-03-26T09:31:24.833Z,637.0000
2023-03-26T09:32:27.130Z,633.0000
2023-03-26T09:33:27.234Z,631.0000
2023-03-26T09:34:29.560Z,630.0000
2023-03-26T09:35:32.044Z,631.0000
2023-03-26T09:36:34.203Z,630.0000
2023-03-26T09:37:36.495Z,630.0000
2023-03-26T09:38:38.778Z,628.0000
2023-03-26T09:39:38.908Z,626.0000
2023-03-26T09:40:41.276Z,630.0000
2023-03-26T09:41:43.555Z,626.0000
2023-03-26T09:42:45.908Z,624.0000
2023-03-26T09:43:48.203Z,623.0000
2023-03-26T09:44:50.469Z,620.0000
2023-03-26T09:45:52.834Z,615.0000
2023-03-26T09:46:52.938Z,613.0000
2023-03-26T09:47:55.275Z,614.0000
2023-03-26T09:48:57.589Z,613.0000
2023-03-26T09:49:59.940Z,610.0000
2023-03-26T09:51:02.398Z,610.0000
2023-03-26T09:52:02.490Z,607.0000
2023-03-26T09:53:04.836Z,603.0000
2023-03-26T09:54:07.183Z,601.0000
2023-03-26T09:55:09.514Z,602.0000
2023-03-26T09:56:11.857Z,600.0000
2023-03-26T09:57:12.091Z,596.0000
2023-03-26T09:58:14.400Z,598.0000
2023-03-26T09:59:16.789Z,596.0000
2023-03-26T10:00:19.122Z,598.0000
2023-03-26T10:01:19.473Z,596.0000
2023-03-26T10:02:21.666Z,594.0000
2023-03-26T10:03:25.701Z,593.0000
2023-03-26T10:04:26.368Z,591.0000
2023-03-26T10:05:28.667Z,590.0000
2023-03-26T10:06:28.902Z,589.0000
2023-03-26T10:07:31.189Z,588.0000
2023-03-26T10:08:33.547Z,584.0000
2023-03-26T10:09:35.935Z,582.0000
2023-03-26T10:10:38.268Z,579.0000
2023-03-26T10:11:40.696Z,577.0000
2023-03-26T10:12:23.595Z,577.0000
2023-03-26T10:13:25.930Z,575.0000
2023-03-26T10:14:28.266Z,578.0000
2023-03-26T10:15:30.618Z,577.0000
2023-03-26T10:16:30.835Z,573.0000
2023-03-26T10:17:33.164Z,577.0000
2023-03-26T10:18:35.426Z,571.0000
2023-03-26T10:19:37.759Z,570.0000
2023-03-26T10:20:40.079Z,568.0000
2023-03-26T10:21:42.388Z,570.0000
2023-03-26T10:22:42.640Z,568.0000
2023-03-26T10:23:44.837Z,570.0000
2023-03-26T10:24:47.148Z,569.0000
2023-03-26T10:25:49.427Z,564.0000
2023-03-26T10:27:09.174Z,561.0000
2023-03-26T10:27:53.985Z,559.0000
2023-03-26T10:28:56.225Z,556.0000
2023-03-26T10:29:56.355Z,556.0000
2023-03-26T10:30:58.656Z,552.0000
2023-03-26T10:32:00.827Z,553.0000
2023-03-26T10:33:03.158Z,554.0000
2023-03-26T10:34:05.292Z,553.0000
2023-03-26T10:35:07.573Z,551.0000
2023-03-26T10:36:09.882Z,554.0000
2023-03-26T10:37:12.171Z,552.0000
2023-03-26T10:38:12.466Z,554.0000
2023-03-26T10:39:35.849Z,554.0000
2023-03-26T10:40:17.066Z,554.0000
2023-03-26T10:41:19.360Z,549.0000
2023-03-26T10:42:21.679Z,550.0000
2023-03-26T10:43:24.129Z,551.0000
2023-03-26T10:44:24.189Z,551.0000
2023-03-26T10:45:26.502Z,553.0000
2023-03-26T10:46:28.861Z,553.0000
2023-03-26T10:47:31.161Z,551.0000
2023-03-26T10:48:33.599Z,547.0000
2023-03-26T10:49:33.652Z,546.0000
2023-03-26T10:50:35.934Z,546.0000
2023-03-26T10:51:38.216Z,545.0000
2023-03-26T10:52:40.559Z,547.0000
2023-03-26T10:53:42.901Z,547.0000
2023-03-26T10:54:45.216Z,547.0000
2023-03-26T10:55:45.555Z,546.0000
2023-03-26T10:56:47.804Z,539.0000
2023-03-26T10:57:50.139Z,536.0000
2023-03-26T10:58:52.513Z,535.0000
2023-03-26T10:59:54.847Z,539.0000
2023-03-26T11:00:55.178Z,540.0000
2023-03-26T11:01:57.507Z,536.0000
2023-03-26T11:02:59.872Z,538.0000
2023-03-26T11:04:02.302Z,538.0000
2023-03-26T11:05:04.551Z,539.0000
2023-03-26T11:06:04.683Z,538.0000
2023-03-26T11:07:07.044Z,533.0000
2023-03-26T11:08:09.318Z,532.0000
2023-03-26T11:09:11.743Z,528.0000
2023-03-26T11:10:13.975Z,530.0000
2023-03-26T11:11:14.288Z,528.0000
2023-03-26T11:12:26.263Z,527.0000
2023-03-26T11:13:18.858Z,527.0000
2023-03-26T11:15:36.695Z,511.0000
2023-03-26T11:16:38.851Z,510.0000
2023-03-26T11:17:41.725Z,512.0000
2023-03-26T11:18:43.431Z,512.0000
2023-03-26T11:19:43.550Z,511.0000
2023-03-26T11:20:45.912Z,513.0000
2023-03-26T11:21:48.157Z,514.0000
2023-03-26T11:22:50.438Z,519.0000
2023-03-26T11:24:04.665Z,523.0000
2023-03-26T11:24:55.092Z,527.0000
2023-03-26T11:25:57.353Z,527.0000
2023-03-26T11:26:57.511Z,531.0000
2023-03-26T11:27:59.840Z,532.0000
2023-03-26T11:29:03.309Z,536.0000
2023-03-26T11:30:04.413Z,538.0000
2023-03-26T11:31:06.779Z,537.0000
2023-03-26T11:32:09.027Z,538.0000
2023-03-26T11:33:09.177Z,538.0000
2023-03-26T11:34:11.531Z,539.0000
2023-03-26T11:35:13.782Z,539.0000
2023-03-26T11:36:16.326Z,544.0000
2023-03-26T11:37:18.421Z,550.0000
2023-03-26T11:38:20.660Z,551.0000
2023-03-26T11:39:22.954Z,554.0000
2023-03-26T11:40:23.094Z,558.0000
2023-03-26T11:41:25.441Z,558.0000
2023-03-26T11:42:27.647Z,560.0000
2023-03-26T11:43:29.907Z,560.0000
2023-03-26T11:44:32.193Z,562.0000
2023-03-26T11:45:34.404Z,567.0000
2023-03-26T11:46:36.840Z,568.0000
2023-03-26T11:47:39.041Z,566.0000
2023-03-26T11:48:39.051Z,563.0000
2023-03-26T11:49:41.331Z,566.0000
2023-03-26T11:50:43.612Z,561.0000
2023-03-26T11:51:45.841Z,564.0000
2023-03-26T11:52:48.069Z,560.0000
2023-03-26T11:53:50.424Z,560.0000
2023-03-26T11:54:52.604Z,562.0000
2023-03-26T11:55:54.873Z,561.0000
2023-03-26T11:57:04.637Z,550.0000
2023-03-26T11:57:57.360Z,544.0000
2023-03-26T11:58:59.541Z,542.0000
2023-03-26T12:00:01.820Z,536.0000
2023-03-26T12:01:04.139Z,537.0000
2023-03-26T12:02:06.598Z,536.0000
2023-03-26T12:03:08.730Z,532.0000
2023-03-26T12:04:11.010Z,532.0000
2023-03-26T12:05:11.124Z,534.0000
2023-03-26T12:06:13.429Z,538.0000
2023-03-26T12:07:15.886Z,542.0000
2023-03-26T12:08:18.023Z,544.0000
2023-03-26T12:09:20.315Z,547.0000
2023-03-26T12:10:22.613Z,547.0000
2023-03-26T12:11:24.835Z,548.0000
2023-03-26T12:12:25.065Z,547.0000